Time;durP1;ratioP1;P1;durP2;ratioP2;P2;SDS_P1;SDS_P2;PMS_P1;PMS_P2;Temp;Humidity;BMP_temperature;BMP_pressure;BME280_temperature;BME280_humidity;BME280_pressure;Samples;Min_cycle;Max_cycle;Signal;HPM_P1;HPM_P2
2023/03/29 00:00:58;;;;;;;7.60;4.78;;;5.10;99.10;;;;;;5093451;28;20053;-64
2023/03/29 00:03:25;;;;;;;9.07;4.63;;;5.10;98.80;;;;;;5093422;28;20514;-63
2023/03/29 00:05:56;;;;;;;6.85;4.72;;;5.10;98.50;;;;;;5093112;28;20132;-64
2023/03/29 00:08:22;;;;;;;8.65;5.22;;;5.10;99.00;;;;;;5093360;28;20020;-65
2023/03/29 00:10:48;;;;;;;7.43;5.28;;;5.10;99.90;;;;;;5093175;28;20020;-63
2023/03/29 00:13:14;;;;;;;10.05;5.28;;;5.00;99.90;;;;;;5093398;28;20077;-63
2023/03/29 00:15:40;;;;;;;11.20;5.90;;;5.00;99.90;;;;;;5093232;28;20036;-63
2023/03/29 00:18:06;;;;;;;9.70;5.45;;;5.00;99.90;;;;;;5093151;28;20031;-63
2023/03/29 00:20:31;;;;;;;9.48;5.65;;;5.00;99.90;;;;;;5093327;28;20036;-63
2023/03/29 00:22:57;;;;;;;12.15;6.13;;;5.00;99.90;;;;;;5093405;28;20032;-63
2023/03/29 00:25:23;;;;;;;12.05;6.13;;;5.00;99.90;;;;;;5093089;28;20031;-63
2023/03/29 00:27:48;;;;;;;7.78;6.00;;;5.00;99.90;;;;;;5095909;28;20386;-63
2023/03/29 00:30:14;;;;;;;9.75;6.55;;;4.90;99.90;;;;;;5097169;28;20020;-63
2023/03/29 00:32:40;;;;;;;9.82;6.15;;;4.90;99.90;;;;;;5096999;28;20046;-64
2023/03/29 00:35:07;;;;;;;9.80;6.30;;;5.00;99.90;;;;;;5097524;28;20036;-63
2023/03/29 00:37:33;;;;;;;10.93;5.80;;;4.90;99.90;;;;;;5096874;28;20076;-63
2023/03/29 00:39:59;;;;;;;9.95;5.40;;;4.90;99.90;;;;;;5097102;28;20415;-63
2023/03/29 00:42:25;;;;;;;11.55;5.70;;;4.90;99.90;;;;;;5097000;28;20034;-63
2023/03/29 00:47:55;;;;;;;6.90;5.22;;;4.90;99.90;;;;;;5111190;27;20137;-63
2023/03/29 00:50:25;;;;;;;;;;;4.90;99.90;;;;;;5111760;28;20054;-64
2023/03/29 00:52:55;;;;;;;10.25;5.60;;;4.90;99.90;;;;;;5111373;28;19930;-63
2023/03/29 00:55:24;;;;;;;8.32;5.38;;;4.90;99.90;;;;;;5111011;28;20023;-63
2023/03/29 00:57:52;;;;;;;10.80;5.85;;;4.90;99.90;;;;;;5111284;28;20032;-63
2023/03/29 01:00:21;;;;;;;11.18;5.78;;;4.90;99.90;;;;;;5110967;28;20032;-63
2023/03/29 01:02:52;;;;;;;10.63;5.50;;;4.90;99.90;;;;;;5110989;28;20039;-63
2023/03/29 01:05:24;;;;;;;9.23;6.18;;;4.80;99.90;;;;;;5110827;28;20116;-63
2023/03/29 01:07:57;;;;;;;7.45;5.43;;;4.80;99.90;;;;;;5110824;28;20028;-63
2023/03/29 01:10:33;;;;;;;10.07;5.25;;;4.80;99.90;;;;;;5110740;28;20039;-64
2023/03/29 01:13:05;;;;;;;10.15;5.85;;;4.80;99.90;;;;;;5110815;28;20031;-63
2023/03/29 01:15:31;;;;;;;7.70;5.55;;;4.80;99.90;;;;;;5110381;28;20024;-63
2023/03/29 01:18:00;;;;;;;11.45;6.82;;;4.80;99.90;;;;;;5110362;28;20027;-63
2023/03/29 01:20:54;;;;;;;9.90;6.10;;;4.80;99.90;;;;;;5110618;28;20012;-63
2023/03/29 01:23:25;;;;;;;;;;;4.80;99.90;;;;;;5111060;28;20020;-63
2023/03/29 01:26:16;;;;;;;10.73;5.85;;;4.80;99.90;;;;;;5110420;28;19915;-63
2023/03/29 01:28:51;;;;;;;11.23;5.70;;;4.80;99.90;;;;;;5110535;28;20258;-63
2023/03/29 01:31:23;;;;;;;11.60;5.65;;;4.90;99.90;;;;;;5110375;28;20031;-63
2023/03/29 01:33:53;;;;;;;6.53;4.47;;;4.90;99.90;;;;;;5110684;28;20050;-63
2023/03/29 01:36:26;;;;;;;9.52;6.00;;;4.90;99.90;;;;;;5110142;28;20031;-63
2023/03/29 01:38:56;;;;;;;8.60;6.03;;;4.80;99.90;;;;;;5110121;28;20028;-63
2023/03/29 01:41:31;;;;;;;8.82;5.43;;;4.80;99.90;;;;;;5110318;28;20323;-63
2023/03/29 01:44:04;;;;;;;7.53;5.57;;;4.80;99.90;;;;;;5110311;28;20024;-63
2023/03/29 01:46:51;;;;;;;9.07;6.10;;;4.90;99.90;;;;;;5109896;28;20048;-63
2023/03/29 01:49:41;;;;;;;10.48;5.43;;;4.90;99.90;;;;;;5109969;28;20020;-63
2023/03/29 01:52:15;;;;;;;10.35;6.43;;;4.90;99.90;;;;;;5109737;28;20101;-63
2023/03/29 01:54:46;;;;;;;10.63;6.78;;;4.90;99.90;;;;;;5109570;28;20089;-64
2023/03/29 01:57:13;;;;;;;9.48;6.03;;;4.90;99.90;;;;;;5107548;28;20114;-63
2023/03/29 01:59:43;;;;;;;10.73;6.18;;;4.90;99.90;;;;;;5096358;28;20077;-63
2023/03/29 02:02:13;;;;;;;8.50;6.38;;;4.90;99.90;;;;;;5096161;28;20487;-63
2023/03/29 02:04:46;;;;;;;11.30;5.88;;;5.00;99.70;;;;;;5096245;28;20059;-63
2023/03/29 02:07:16;;;;;;;9.65;5.95;;;5.00;99.20;;;;;;5096057;28;20101;-63
2023/03/29 02:09:42;;;;;;;10.32;5.85;;;5.00;98.20;;;;;;5095878;28;20033;-63
2023/03/29 02:12:09;;;;;;;11.13;5.90;;;5.00;97.70;;;;;;5096139;28;20032;-63
2023/03/29 02:14:35;;;;;;;9.90;6.15;;;5.00;97.30;;;;;;5096120;28;20016;-64
2023/03/29 02:17:22;;;;;;;11.90;5.57;;;5.00;96.50;;;;;;5096080;28;20450;-63
2023/03/29 02:19:53;;;;;;;9.65;5.72;;;5.00;95.80;;;;;;5096007;28;20046;-63
2023/03/29 02:22:27;;;;;;;11.40;5.80;;;5.00;95.70;;;;;;5095736;28;20042;-63
2023/03/29 02:24:57;;;;;;;10.68;5.80;;;5.10;95.50;;;;;;5095960;28;20390;-63
2023/03/29 02:27:26;;;;;;;9.98;5.45;;;5.10;95.10;;;;;;5095635;28;20028;-63
2023/03/29 02:29:51;;;;;;;8.27;5.95;;;5.10;94.30;;;;;;5095896;28;20028;-63
2023/03/29 02:32:25;;;;;;;7.55;5.43;;;5.00;94.00;;;;;;5095489;28;20020;-63
2023/03/29 02:34:57;;;;;;;9.20;5.45;;;5.10;93.80;;;;;;5095595;28;20020;-63
2023/03/29 02:37:28;;;;;;;10.73;5.55;;;5.10;93.30;;;;;;5095697;28;20641;-63
2023/03/29 02:39:55;;;;;;;11.23;5.85;;;5.10;93.20;;;;;;5095494;28;20036;-63
2023/03/29 02:42:22;;;;;;;9.52;5.55;;;5.10;93.00;;;;;;5095655;28;20482;-64
2023/03/29 02:44:51;;;;;;;9.70;5.45;;;5.10;92.80;;;;;;5095207;28;20028;-65
2023/03/29 02:47:27;;;;;;;9.98;5.82;;;5.20;92.70;;;;;;5095023;28;20051;-64
2023/03/29 02:49:52;;;;;;;8.43;5.07;;;5.20;91.70;;;;;;5095141;28;20021;-64
2023/03/29 02:52:24;;;;;;;10.38;5.72;;;5.20;90.80;;;;;;5095575;28;20160;-64
2023/03/29 02:54:53;;;;;;;9.05;5.50;;;5.20;89.20;;;;;;5095085;28;20024;-64
2023/03/29 02:57:25;;;;;;;8.70;5.47;;;5.20;88.40;;;;;;5095238;28;20035;-64
2023/03/29 02:59:51;;;;;;;7.18;5.30;;;5.20;87.50;;;;;;5095375;28;20477;-64
2023/03/29 03:02:17;;;;;;;8.55;5.60;;;5.20;87.50;;;;;;5095186;28;20035;-65
2023/03/29 03:04:43;;;;;;;6.25;4.95;;;5.20;85.40;;;;;;5094717;28;20020;-64
2023/03/29 03:07:09;;;;;;;6.85;4.45;;;5.20;86.00;;;;;;5094758;28;20389;-64
2023/03/29 03:09:34;;;;;;;7.50;5.22;;;5.30;85.50;;;;;;5093944;28;20016;-65
2023/03/29 03:12:00;;;;;;;10.90;5.15;;;5.30;85.70;;;;;;5094876;28;20020;-65
2023/03/29 03:14:27;;;;;;;10.02;5.05;;;5.30;85.20;;;;;;5094867;28;20046;-64
2023/03/29 03:16:53;;;;;;;7.85;5.20;;;5.30;82.10;;;;;;5094500;28;20024;-64
2023/03/29 03:19:20;;;;;;;6.20;4.90;;;5.30;80.70;;;;;;5094768;28;20032;-64
2023/03/29 03:21:45;;;;;;;8.27;4.85;;;5.30;80.50;;;;;;5094836;28;20024;-65
2023/03/29 03:24:11;;;;;;;11.65;4.57;;;5.40;79.40;;;;;;5094837;28;20535;-64
2023/03/29 03:26:37;;;;;;;9.15;4.78;;;5.40;76.00;;;;;;5094626;28;20032;-64
2023/03/29 03:29:03;;;;;;;7.50;4.65;;;5.40;74.90;;;;;;5094717;28;20020;-64
2023/03/29 03:31:29;;;;;;;8.00;4.63;;;5.40;74.20;;;;;;5094485;28;20477;-64
2023/03/29 03:33:55;;;;;;;7.10;4.50;;;5.40;72.90;;;;;;5094725;28;20039;-65
2023/03/29 03:36:24;;;;;;;7.28;4.30;;;5.40;70.80;;;;;;5094587;28;20538;-64
2023/03/29 03:38:51;;;;;;;9.10;4.82;;;5.40;72.60;;;;;;5094496;28;20525;-64
2023/03/29 03:41:17;;;;;;;9.65;4.75;;;5.40;70.30;;;;;;5094174;28;20504;-64
2023/03/29 03:43:47;;;;;;;6.38;4.78;;;5.50;67.40;;;;;;5094214;28;20028;-64
2023/03/29 03:46:15;;;;;;;6.00;4.13;;;5.50;65.00;;;;;;5093986;28;20410;-64
2023/03/29 03:48:40;;;;;;;8.50;4.70;;;5.50;66.30;;;;;;5094501;28;20028;-65
2023/03/29 03:51:06;;;;;;;12.40;5.68;;;5.50;67.10;;;;;;5094134;28;20020;-64
2023/03/29 03:53:32;;;;;;;8.02;5.07;;;5.60;69.80;;;;;;5094419;28;20433;-64
2023/03/29 03:56:00;;;;;;;9.18;4.95;;;5.60;68.40;;;;;;5094266;28;20028;-64
2023/03/29 03:58:26;;;;;;;7.72;4.50;;;5.60;66.20;;;;;;5094292;28;20032;-64
2023/03/29 04:00:52;;;;;;;8.07;4.32;;;5.60;65.00;;;;;;5094064;28;20107;-65
2023/03/29 04:03:18;;;;;;;10.18;4.25;;;5.60;65.10;;;;;;5094055;28;20480;-64
2023/03/29 04:05:45;;;;;;;7.97;4.15;;;5.60;59.20;;;;;;5093533;28;20024;-65
2023/03/29 04:08:12;;;;;;;7.55;4.50;;;5.60;58.60;;;;;;5093779;28;20052;-64
2023/03/29 04:10:38;;;;;;;7.63;4.20;;;5.70;53.30;;;;;;5093819;28;20109;-64
2023/03/29 04:13:04;;;;;;;6.97;4.20;;;5.70;48.00;;;;;;5093949;28;20413;-65
2023/03/29 04:15:32;;;;;;;7.63;4.55;;;5.70;43.60;;;;;;5093862;28;20406;-64
2023/03/29 04:17:59;;;;;;;7.65;4.47;;;5.80;41.90;;;;;;5093690;28;20028;-64
2023/03/29 04:20:25;;;;;;;10.25;4.70;;;5.80;38.10;;;;;;5093707;28;20020;-64
2023/03/29 04:22:52;;;;;;;8.15;4.70;;;5.80;34.00;;;;;;5093546;28;20035;-64
2023/03/29 04:25:20;;;;;;;8.43;4.78;;;5.90;34.10;;;;;;5093646;28;20024;-64
2023/03/29 04:27:46;;;;;;;11.00;5.43;;;5.90;33.60;;;;;;5093449;28;20429;-64
2023/03/29 04:30:12;;;;;;;8.65;5.40;;;5.90;31.00;;;;;;5093665;28;20020;-64
2023/03/29 04:32:37;;;;;;;7.72;5.50;;;5.90;30.10;;;;;;5093646;28;20028;-64
2023/03/29 04:35:04;;;;;;;9.63;5.50;;;5.90;30.00;;;;;;5093486;28;20038;-64
2023/03/29 04:37:31;;;;;;;11.60;5.88;;;5.90;29.10;;;;;;5093463;28;20023;-64
2023/03/29 04:39:59;;;;;;;11.18;6.28;;;6.00;29.20;;;;;;5093189;28;20039;-65
2023/03/29 04:42:25;;;;;;;12.80;6.53;;;6.00;30.50;;;;;;5093155;28;20059;-66
2023/03/29 04:44:52;;;;;;;11.45;6.05;;;6.00;29.70;;;;;;5093479;28;20039;-64
2023/03/29 04:47:18;;;;;;;9.70;5.53;;;6.00;29.00;;;;;;5092881;28;20048;-65
2023/03/29 04:49:44;;;;;;;9.52;4.45;;;6.10;21.50;;;;;;5093407;28;20390;-64
2023/03/29 04:52:09;;;;;;;8.13;4.68;;;6.20;20.60;;;;;;5093441;28;20028;-65
2023/03/29 04:54:36;;;;;;;8.90;4.47;;;6.20;16.90;;;;;;5093122;28;20112;-64
2023/03/29 04:57:02;;;;;;;7.15;4.72;;;6.20;13.20;;;;;;5093375;28;20478;-64
2023/03/29 04:59:28;;;;;;;8.80;4.32;;;6.30;10.90;;;;;;5093411;28;20161;-64
2023/03/29 05:01:53;;;;;;;5.82;4.30;;;6.40;12.30;;;;;;5093468;28;20066;-64
2023/03/29 05:04:19;;;;;;;9.38;4.30;;;6.30;11.60;;;;;;5093332;28;20032;-64
2023/03/29 05:06:45;;;;;;;9.35;4.70;;;6.30;14.40;;;;;;5093067;28;20478;-65
2023/03/29 05:09:11;;;;;;;11.43;4.93;;;6.40;11.70;;;;;;5093100;28;20516;-64
2023/03/29 05:11:37;;;;;;;8.02;4.45;;;6.40;9.30;;;;;;5093172;28;20033;-64
2023/03/29 05:14:06;;;;;;;7.68;4.40;;;6.40;1.00;;;;;;5093218;28;20024;-64
2023/03/29 05:16:33;;;;;;;8.60;4.47;;;6.50;2.80;;;;;;5093292;28;20031;-64
2023/03/29 05:18:59;;;;;;;5.90;4.18;;;6.50;1.20;;;;;;5093067;28;20343;-64
2023/03/29 05:21:27;;;;;;;10.52;5.00;;;6.60;1.00;;;;;;5092991;28;20024;-66
2023/03/29 05:23:53;;;;;;;8.55;4.50;;;6.60;1.00;;;;;;5093311;28;20496;-65
2023/03/29 05:26:21;;;;;;;7.10;4.00;;;6.60;1.00;;;;;;5092911;28;20389;-64
2023/03/29 05:28:47;;;;;;;7.55;4.10;;;6.60;2.10;;;;;;5093079;28;20032;-64
2023/03/29 05:31:13;;;;;;;10.90;4.70;;;6.60;5.60;;;;;;5092997;28;20036;-66
2023/03/29 05:33:38;;;;;;;9.88;4.50;;;6.60;3.50;;;;;;5095079;28;20059;-64
2023/03/29 05:36:07;;;;;;;9.90;4.78;;;6.60;5.20;;;;;;5096891;28;20036;-64
2023/03/29 05:38:33;;;;;;;9.40;4.05;;;6.70;6.60;;;;;;5096531;28;20440;-64
2023/03/29 05:41:00;;;;;;;16.48;4.60;;;6.70;9.10;;;;;;5096833;28;20063;-65
2023/03/29 05:43:26;;;;;;;11.98;4.72;;;6.70;13.30;;;;;;5096621;28;20520;-64
2023/03/29 05:45:53;;;;;;;13.15;5.20;;;6.70;14.20;;;;;;5096183;28;20072;-64
2023/03/29 05:48:19;;;;;;;10.05;6.25;;;6.70;14.60;;;;;;5096593;28;20077;-64
2023/03/29 05:50:47;;;;;;;9.60;5.18;;;6.70;19.70;;;;;;5096553;28;20478;-64
2023/03/29 05:53:14;;;;;;;9.52;6.05;;;6.70;23.70;;;;;;5096507;28;20031;-64
2023/03/29 05:55:41;;;;;;;12.35;5.20;;;6.70;25.00;;;;;;5096321;28;20035;-64
2023/03/29 05:58:07;;;;;;;13.35;7.03;;;6.80;21.60;;;;;;5096162;28;20020;-64
2023/03/29 06:00:35;;;;;;;12.20;5.13;;;6.80;23.60;;;;;;5096212;28;20355;-64
2023/03/29 06:03:01;;;;;;;14.55;5.47;;;6.80;25.10;;;;;;5096209;28;20025;-64
2023/03/29 06:05:27;;;;;;;9.55;4.80;;;6.80;25.80;;;;;;5096333;28;20024;-64
2023/03/29 06:07:52;;;;;;;9.27;5.40;;;6.80;28.60;;;;;;5095722;28;20058;-64
2023/03/29 06:10:19;;;;;;;14.52;5.50;;;6.80;25.60;;;;;;5096090;28;20020;-64
2023/03/29 06:12:45;;;;;;;13.80;5.40;;;6.90;25.00;;;;;;5095814;28;20020;-64
2023/03/29 06:15:12;;;;;;;9.07;5.22;;;6.90;31.40;;;;;;5096005;28;20020;-64
2023/03/29 06:17:39;;;;;;;14.23;5.90;;;6.80;33.90;;;;;;5095668;28;20024;-64
2023/03/29 06:20:10;;;;;;;12.82;5.70;;;6.80;38.10;;;;;;5095682;28;20028;-64
2023/03/29 06:22:37;;;;;;;10.30;5.05;;;6.80;43.30;;;;;;5096001;28;20035;-64
2023/03/29 06:25:04;;;;;;;12.43;6.03;;;6.80;53.80;;;;;;5095809;28;20078;-65
2023/03/29 06:27:30;;;;;;;11.77;6.70;;;6.80;67.80;;;;;;5095584;28;20051;-65
2023/03/29 06:29:55;;;;;;;16.15;7.63;;;6.80;68.50;;;;;;5095250;28;20032;-64
2023/03/29 06:32:22;;;;;;;10.75;6.95;;;6.90;71.80;;;;;;5093656;28;20039;-65
2023/03/29 06:34:47;;;;;;;13.35;6.78;;;6.90;68.20;;;;;;5098765;28;20020;-64
2023/03/29 06:37:13;;;;;;;9.85;5.97;;;6.90;58.10;;;;;;5095394;28;20028;-64
2023/03/29 06:39:39;;;;;;;12.63;6.45;;;6.90;61.20;;;;;;5098204;28;20028;-65
2023/03/29 06:42:05;;;;;;;10.32;5.55;;;7.00;59.90;;;;;;5094257;28;20115;-65
2023/03/29 06:44:31;;;;;;;10.63;5.82;;;6.90;52.40;;;;;;5098759;28;20106;-64
2023/03/29 06:46:57;;;;;;;12.63;5.97;;;7.00;52.90;;;;;;5094055;28;20056;-65
2023/03/29 06:49:22;;;;;;;11.52;6.00;;;7.10;48.00;;;;;;5095362;28;20035;-64
2023/03/29 06:51:47;;;;;;;11.68;5.75;;;7.10;44.60;;;;;;5095138;28;20020;-64
2023/03/29 06:54:13;;;;;;;13.15;6.38;;;7.10;42.50;;;;;;5094606;28;20027;-64
2023/03/29 06:56:39;;;;;;;15.73;6.22;;;7.20;41.60;;;;;;5098342;28;20023;-64
2023/03/29 06:59:05;;;;;;;11.32;6.00;;;7.30;40.10;;;;;;5115517;28;20503;-64
2023/03/29 07:01:31;;;;;;;11.90;5.60;;;7.30;41.60;;;;;;5115016;28;20024;-64
2023/03/29 07:03:59;;;;;;;10.65;6.30;;;7.40;43.50;;;;;;5115496;28;20027;-64
2023/03/29 07:06:25;;;;;;;11.98;6.30;;;7.50;43.30;;;;;;5095812;28;20058;-65
2023/03/29 07:08:51;;;;;;;10.95;5.80;;;7.50;38.00;;;;;;5094571;28;20458;-64
2023/03/29 07:11:17;;;;;;;10.75;6.78;;;7.60;40.00;;;;;;5094742;28;20470;-64
2023/03/29 07:13:43;;;;;;;13.55;6.63;;;7.60;33.70;;;;;;5094337;28;20020;-64
2023/03/29 07:16:12;;;;;;;11.85;6.70;;;7.70;36.50;;;;;;5094733;28;20039;-63
2023/03/29 07:18:40;;;;;;;13.75;6.47;;;7.80;32.90;;;;;;5099327;28;20495;-64
2023/03/29 07:21:06;;;;;;;12.10;7.25;;;7.80;31.50;;;;;;5115146;28;20086;-64
2023/03/29 07:23:32;;;;;;;17.17;7.82;;;7.90;34.90;;;;;;5114856;28;20046;-64
2023/03/29 07:25:57;;;;;;;13.82;7.60;;;8.00;29.80;;;;;;5115017;28;20477;-65
2023/03/29 07:28:23;;;;;;;14.50;7.35;;;8.00;29.80;;;;;;5114767;28;20023;-64
2023/03/29 07:30:48;;;;;;;10.93;7.07;;;8.20;22.40;;;;;;5114306;28;20070;-64
2023/03/29 07:33:14;;;;;;;13.32;6.85;;;8.30;22.40;;;;;;5113688;28;20023;-64
2023/03/29 07:35:42;;;;;;;11.90;7.18;;;8.30;23.50;;;;;;5114811;28;20038;-64
2023/03/29 07:38:08;;;;;;;12.45;6.82;;;8.30;20.40;;;;;;5114737;28;20528;-66
2023/03/29 07:40:34;;;;;;;10.60;7.10;;;8.30;22.70;;;;;;5114796;28;20085;-64
2023/03/29 07:43:00;;;;;;;14.02;6.72;;;8.30;22.50;;;;;;5095108;28;20024;-65
2023/03/29 07:45:27;;;;;;;13.98;6.72;;;8.40;24.40;;;;;;5094036;28;20044;-64
2023/03/29 07:47:55;;;;;;;13.77;7.80;;;8.40;29.60;;;;;;5093298;28;20028;-64
2023/03/29 07:50:20;;;;;;;13.90;6.65;;;8.50;29.30;;;;;;5093566;28;20260;-64
2023/03/29 07:52:47;;;;;;;14.07;7.03;;;8.50;21.40;;;;;;5093303;28;20107;-64
2023/03/29 07:55:12;;;;;;;17.05;6.78;;;8.60;26.10;;;;;;5092910;28;20504;-64
2023/03/29 07:57:39;;;;;;;11.88;6.82;;;8.70;21.20;;;;;;5093449;28;20030;-64
2023/03/29 08:00:10;;;;;;;13.93;6.45;;;8.70;9.90;;;;;;5093005;28;20032;-64
2023/03/29 08:02:35;;;;;;;10.07;6.40;;;8.80;16.70;;;;;;5093524;28;20032;-64
2023/03/29 08:05:01;;;;;;;13.73;6.25;;;8.80;15.30;;;;;;5093383;28;20038;-64
2023/03/29 08:07:27;;;;;;;10.57;6.35;;;8.90;11.30;;;;;;5093526;28;20082;-64
2023/03/29 08:09:52;;;;;;;11.95;6.35;;;8.90;15.30;;;;;;5093523;28;20028;-64
2023/03/29 08:12:18;;;;;;;10.18;5.95;;;9.00;12.40;;;;;;5093368;28;20118;-64
2023/03/29 08:14:43;;;;;;;9.40;6.00;;;9.00;3.30;;;;;;5092809;28;20038;-66
2023/03/29 08:17:09;;;;;;;11.68;6.30;;;9.10;2.50;;;;;;5093737;28;20103;-65
2023/03/29 08:19:35;;;;;;;10.35;6.30;;;9.20;1.00;;;;;;5093709;28;20545;-65
2023/03/29 08:22:00;;;;;;;10.68;5.60;;;9.40;1.00;;;;;;5093524;28;20078;-69
2023/03/29 08:24:26;;;;;;;15.60;6.60;;;9.40;1.00;;;;;;5093432;28;20057;-65
2023/03/29 08:26:52;;;;;;;9.90;5.28;;;9.40;1.00;;;;;;5092649;28;20024;-65
2023/03/29 08:29:17;;;;;;;10.70;6.55;;;9.40;1.00;;;;;;5092848;28;20085;-65
2023/03/29 08:31:44;;;;;;;11.95;6.10;;;9.40;1.00;;;;;;5093181;28;20047;-64
2023/03/29 08:34:09;;;;;;;9.95;5.93;;;9.30;1.00;;;;;;5100911;28;20102;-65
2023/03/29 08:36:35;;;;;;;13.80;5.68;;;9.30;1.00;;;;;;5092681;28;20093;-64
2023/03/29 08:39:02;;;;;;;12.00;6.20;;;9.50;1.00;;;;;;5093274;28;20028;-65
2023/03/29 08:41:56;;;;;;;15.00;6.07;;;9.70;1.00;;;;;;5093493;28;20024;-64
2023/03/29 08:45:02;;;;;;;8.60;5.47;;;9.90;1.00;;;;;;5092747;28;20534;-64
2023/03/29 08:47:40;;;;;;;24.98;11.95;;;10.20;1.00;;;;;;5092053;28;20044;-64
2023/03/29 08:50:08;;;;;;;12.38;5.00;;;10.20;1.00;;;;;;5092883;28;20081;-65
2023/03/29 08:52:40;;;;;;;9.77;4.68;;;10.50;1.00;;;;;;5093247;28;20030;-65
2023/03/29 08:55:14;;;;;;;14.02;4.97;;;10.60;1.00;;;;;;5092237;28;20438;-65
2023/03/29 08:57:45;;;;;;;12.30;7.35;;;10.50;1.00;;;;;;5093229;28;20051;-65
2023/03/29 09:00:24;;;;;;;9.38;6.45;;;10.40;1.00;;;;;;5092947;28;20028;-65
2023/03/29 09:02:52;;;;;;;15.65;5.78;;;10.40;1.00;;;;;;5093044;28;20024;-65
2023/03/29 09:05:25;;;;;;;11.15;4.80;;;10.40;99.90;;;;;;5092375;28;20443;-65
2023/03/29 09:07:52;;;;;;;10.27;5.13;;;10.30;99.90;;;;;;5093874;28;20031;-65
2023/03/29 09:10:22;;;;;;;7.93;5.20;;;10.30;99.90;;;;;;5097123;28;20020;-67
2023/03/29 09:13:13;;;;;;;10.88;5.50;;;10.40;99.90;;;;;;5097057;28;20024;-65
2023/03/29 09:15:51;;;;;;;11.38;4.88;;;10.60;99.90;;;;;;5095905;28;20028;-64
2023/03/29 09:18:32;;;;;;;11.23;5.13;;;10.60;29.70;;;;;;5096342;28;20028;-64
2023/03/29 09:21:08;;;;;;;13.00;4.97;;;10.70;1.00;;;;;;5096734;28;20202;-65
2023/03/29 09:24:04;;;;;;;15.38;4.90;;;10.70;95.70;;;;;;5097039;28;20028;-64
2023/03/29 09:26:38;;;;;;;10.20;4.90;;;10.90;88.80;;;;;;5096420;28;20044;-65
2023/03/29 09:29:44;;;;;;;12.60;5.57;;;10.90;13.70;;;;;;5095854;28;20039;-65
2023/03/29 09:32:19;;;;;;;8.57;5.03;;;10.90;1.00;;;;;;5095448;28;20406;-65
2023/03/29 09:34:55;;;;;;;8.90;4.85;;;10.90;1.00;;;;;;5096507;28;20032;-65
2023/03/29 09:37:31;;;;;;;12.25;5.43;;;10.90;1.00;;;;;;5096112;28;20069;-65
2023/03/29 09:39:57;;;;;;;8.15;4.88;;;11.00;1.00;;;;;;5096466;28;20028;-65
2023/03/29 09:42:26;;;;;;;8.02;4.85;;;;;;;;;;5096465;28;20024;-66
2023/03/29 09:44:56;;;;;;;13.20;7.13;;;;;;;;;;5095789;28;20073;-66
2023/03/29 09:47:25;;;;;;;10.43;4.88;;;;;;;;;;5095570;28;20528;-66
2023/03/29 09:49:55;;;;;;;13.50;4.82;;;;;;;;;;5094918;28;20032;-66
2023/03/29 09:52:21;;;;;;;7.57;4.88;;;;;;;;;;5096162;28;20023;-66
2023/03/29 09:54:48;;;;;;;8.10;4.75;;;;;;;;;;5095884;27;20051;-65
2023/03/29 09:57:15;;;;;;;12.40;4.90;;;;;;;;;;5096224;28;20036;-65
2023/03/29 09:59:42;;;;;;;11.27;5.65;;;;;;;;;;5096345;28;20028;-65
2023/03/29 10:02:10;;;;;;;8.70;5.57;;;;;;;;;;5096030;28;20031;-65
2023/03/29 10:04:37;;;;;;;8.07;5.35;;;;;;;;;;5096125;28;20040;-65
2023/03/29 10:07:04;;;;;;;13.90;5.85;;;;;;;;;;5095016;28;20036;-66
2023/03/29 10:09:31;;;;;;;14.48;5.95;;;;;;;;;;5095484;28;20482;-66
2023/03/29 10:12:01;;;;;;;12.82;6.85;;;;;;;;;;5095010;28;20019;-66
2023/03/29 10:14:46;;;;;;;16.25;6.63;;;;;;;;;;5094758;28;20451;-65
2023/03/29 10:17:16;;;;;;;17.50;6.78;;;;;;;;;;5095018;28;20032;-65
2023/03/29 10:19:50;;;;;;;13.85;6.63;;;;;;;;;;5095032;28;20032;-66
2023/03/29 10:22:18;;;;;;;18.27;7.00;;;;;;;;;;5094774;28;20028;-66
2023/03/29 10:24:52;;;;;;;18.75;8.00;;;;;;;;;;5095595;28;20059;-65
2023/03/29 10:27:21;;;;;;;14.45;7.28;;;;;;;;;;5095133;28;20474;-66
2023/03/29 10:29:47;;;;;;;19.20;8.45;;;;;;;;;;5095140;28;20452;-66
2023/03/29 10:32:14;;;;;;;18.15;8.77;;;;;;;;;;5095358;28;20024;-66
2023/03/29 10:34:40;;;;;;;15.77;7.88;;;;;;;;;;5095154;28;20066;-66
2023/03/29 10:37:07;;;;;;;14.13;7.50;;;;;;;;;;5095590;28;20031;-66
2023/03/29 10:39:34;;;;;;;22.83;8.63;;;;;;;;;;5095117;28;20408;-66
2023/03/29 10:42:02;;;;;;;16.23;7.57;;;;;;;;;;5095522;28;20111;-66
2023/03/29 10:44:31;;;;;;;15.40;8.10;;;;;;;;;;5095044;28;20024;-66
2023/03/29 10:47:06;;;;;;;18.17;7.47;;;;;;;;;;5094960;28;20044;-66
2023/03/29 10:49:39;;;;;;;13.23;7.20;;;;;;;;;;5094461;28;20052;-66
2023/03/29 10:52:06;;;;;;;15.27;7.30;;;;;;;;;;5095394;28;20035;-65
2023/03/29 10:54:32;;;;;;;15.43;7.32;;;;;;;;;;5094979;28;20012;-67
2023/03/29 10:56:58;;;;;;;14.23;8.60;;;;;;;;;;5095293;28;20032;-66
2023/03/29 10:59:27;;;;;;;22.35;13.52;;;;;;;;;;5094574;28;20430;-66
2023/03/29 11:02:02;;;;;;;18.80;9.60;;;;;;;;;;5094825;28;20031;-66
2023/03/29 11:04:46;;;;;;;17.98;8.32;;;;;;;;;;5094863;28;20031;-66
2023/03/29 11:10:13;;;;;;;11.40;7.60;;;;;;;;;;5116213;27;20449;-66
2023/03/29 11:12:45;;;;;;;13.20;7.18;;;;;;;;;;5110307;28;20032;-67
2023/03/29 11:15:31;;;;;;;13.85;7.25;;;;;;;;;;5112749;27;20028;-65
2023/03/29 11:18:17;;;;;;;18.75;8.23;;;;;;;;;;5106124;28;20379;-65
2023/03/29 11:20:58;;;;;;;17.35;8.65;;;;;;;;;;5112583;28;20505;-68
2023/03/29 11:23:44;;;;;;;12.55;7.18;;;;;;;;;;5110813;28;20060;-65
2023/03/29 11:26:17;;;;;;;17.45;7.63;;;;;;;;;;5116522;28;20016;-65
2023/03/29 11:29:09;;;;;;;12.00;7.50;;;12.60;99.90;;;;;;5110610;27;20032;-65
2023/03/29 11:31:45;;;;;;;14.75;7.53;;;12.70;99.90;;;;;;5110304;28;20032;-65
2023/03/29 11:34:25;;;;;;;13.63;7.68;;;12.80;99.90;;;;;;5110170;28;20016;-65
2023/03/29 11:37:06;;;;;;;14.90;7.05;;;12.80;99.90;;;;;;5110659;28;20032;-65
2023/03/29 11:39:59;;;;;;;17.17;8.35;;;12.60;99.90;;;;;;5110184;28;20531;-66
2023/03/29 11:42:30;;;;;;;14.38;10.77;;;12.80;99.90;;;;;;5093523;28;20034;-67
2023/03/29 11:44:58;;;;;;;20.90;10.98;;;13.10;99.90;;;;;;5111162;28;20040;-65
2023/03/29 11:47:30;;;;;;;37.85;21.58;;;12.80;99.90;;;;;;5110149;28;20505;-65
2023/03/29 11:50:02;;;;;;;14.38;6.38;;;12.80;99.90;;;;;;5110347;28;20474;-65
2023/03/29 11:52:50;;;;;;;17.70;10.70;;;12.50;99.90;;;;;;5109632;28;20466;-65
2023/03/29 11:55:24;;;;;;;16.17;8.40;;;12.70;99.90;;;;;;5109993;28;20035;-65
2023/03/29 11:58:15;;;;;;;12.85;6.05;;;12.90;99.90;;;;;;5089920;28;20506;-65
2023/03/29 12:00:54;;;;;;;10.95;6.53;;;12.90;99.90;;;;;;5103186;28;20397;-66
2023/03/29 12:06:28;;;;;;;11.77;6.20;;;13.20;99.90;;;;;;5110352;27;20767;-65
2023/03/29 12:12:00;;;;;;;12.10;6.88;;;13.00;99.90;;;;;;5130121;27;20349;-65
2023/03/29 12:14:41;;;;;;;11.13;6.13;;;13.30;99.90;;;;;;5128955;27;20049;-65
2023/03/29 12:17:13;;;;;;;10.07;6.13;;;13.20;90.10;;;;;;5110754;28;20036;-65
2023/03/29 12:20:05;;;;;;;23.73;10.40;;;13.30;8.80;;;;;;5110318;28;20023;-65
2023/03/29 12:22:32;;;;;;;9.75;5.55;;;13.70;1.00;;;;;;5110815;28;20389;-66
2023/03/29 12:25:00;;;;;;;9.32;5.68;;;13.60;1.00;;;;;;5110548;28;20016;-65
2023/03/29 12:27:32;;;;;;;8.77;5.60;;;14.00;1.00;;;;;;5110663;28;20024;-65
2023/03/29 12:30:20;;;;;;;10.45;5.28;;;14.40;99.90;;;;;;5109710;28;20031;-65
2023/03/29 12:33:12;;;;;;;8.27;5.10;;;14.20;99.90;;;;;;5106659;28;20024;-65
2023/03/29 12:35:50;;;;;;;8.45;5.25;;;14.50;1.00;;;;;;5114290;28;20098;-66
2023/03/29 12:38:26;;;;;;;9.20;5.22;;;14.40;63.90;;;;;;5110398;28;20024;-66
2023/03/29 12:40:56;;;;;;;9.38;4.70;;;14.60;1.00;;;;;;5110245;28;20073;-66
2023/03/29 12:43:42;;;;;;;10.85;4.63;;;14.80;1.00;;;;;;5101039;28;20046;-66
2023/03/29 12:46:24;;;;;;;7.45;4.53;;;14.70;1.00;;;;;;5103469;28;20028;-66
2023/03/29 12:48:55;;;;;;;10.88;4.18;;;14.70;1.00;;;;;;5109836;28;20035;-66
2023/03/29 12:51:28;;;;;;;9.18;4.88;;;14.70;1.00;;;;;;5105755;28;20033;-66
2023/03/29 12:54:07;;;;;;;7.97;4.32;;;14.40;1.00;;;;;;5102820;28;20605;-65
2023/03/29 12:56:39;;;;;;;12.55;4.53;;;14.30;1.00;;;;;;5109963;28;20493;-66
2023/03/29 12:59:24;;;;;;;6.50;4.50;;;14.30;3.40;;;;;;5110244;28;20031;-67
2023/03/29 13:02:03;;;;;;;9.20;4.90;;;14.30;1.00;;;;;;5110119;28;20386;-66
2023/03/29 13:04:50;;;;;;;9.38;4.35;;;14.10;1.00;;;;;;5109994;28;20111;-66
2023/03/29 13:10:27;;;;;;;7.97;4.18;;;14.10;1.00;;;;;;5070292;28;20415;-65
2023/03/29 13:12:53;;;;;;;7.75;3.95;;;14.00;45.00;;;;;;5082027;28;20115;-65
2023/03/29 13:15:22;;;;;;;6.65;4.50;;;14.20;10.50;;;;;;5069745;28;20135;-65
2023/03/29 13:18:16;;;;;;;7.70;4.00;;;14.20;1.00;;;;;;5070412;28;20021;-65
2023/03/29 13:23:41;;;;;;;6.90;4.20;;;14.40;1.00;;;;;;5070048;28;20361;-65
2023/03/29 13:26:35;;;;;;;11.43;4.55;;;14.50;1.00;;;;;;5070550;28;20040;-66
2023/03/29 13:29:19;;;;;;;9.15;4.78;;;14.60;1.00;;;;;;5042337;28;20116;-66
2023/03/29 13:32:00;;;;;;;8.23;4.32;;;14.70;1.00;;;;;;5049904;28;20073;-65
2023/03/29 13:34:41;;;;;;;9.15;4.10;;;14.60;1.00;;;;;;5049992;28;20479;-65
2023/03/29 13:37:23;;;;;;;7.85;4.10;;;14.50;1.00;;;;;;5047968;28;20403;-66